Time;durP1;ratioP1;P1;durP2;ratioP2;P2;SDS_P1;SDS_P2;PMS_P1;PMS_P2;Temp;Humidity;BMP_temperature;BMP_pressure;BME280_temperature;BME280_humidity;BME280_pressure;Samples;Min_cycle;Max_cycle;Signal;HPM_P1;HPM_P2
2021/08/19 00:00:29;;;;;;;12.73;10.43;;;;;;;;;;5065478;28;20428;-68
2021/08/19 00:02:55;;;;;;;11.77;10.68;;;;;;;;;;5063573;28;20652;-68
2021/08/19 00:05:20;;;;;;;10.82;9.70;;;;;;;;;;5063676;28;20205;-68
2021/08/19 00:07:46;;;;;;;15.82;10.88;;;;;;;;;;5070056;28;20212;-68
2021/08/19 00:10:11;;;;;;;11.65;10.30;;;;;;;;;;5067988;28;20272;-68
2021/08/19 00:12:37;;;;;;;10.63;9.30;;;;;;;;;;5069450;28;20260;-68
2021/08/19 00:15:02;;;;;;;13.55;10.32;;;;;;;;;;5070824;28;20279;-68
2021/08/19 00:17:27;;;;;;;13.10;10.57;;;;;;;;;;5066659;28;20177;-68
2021/08/19 00:19:53;;;;;;;13.40;10.30;;;;;;;;;;5069626;28;20173;-68
2021/08/19 00:22:18;;;;;;;11.20;9.93;;;;;;;;;;5071914;28;20927;-68
2021/08/19 00:24:43;;;;;;;13.13;10.83;;;;;;;;;;5066787;28;20295;-68
2021/08/19 00:27:08;;;;;;;14.93;10.57;;;;;;;;;;5067102;28;20499;-68
2021/08/19 00:29:33;;;;;;;11.80;10.52;;;;;;;;;;5068358;28;20173;-70
2021/08/19 00:32:01;;;;;;;16.67;10.55;;;;;;;;;;5070017;28;20208;-68
2021/08/19 00:34:26;;;;;;;12.35;9.68;;;;;;;;;;5069649;28;20696;-68
2021/08/19 00:36:53;;;;;;;11.93;10.10;;;;;;;;;;5067969;28;20193;-67
2021/08/19 00:39:19;;;;;;;13.00;10.13;;;;;;;;;;5065965;28;20421;-67
2021/08/19 00:41:44;;;;;;;11.07;9.88;;;;;;;;;;5069978;28;20188;-68
2021/08/19 00:44:09;;;;;;;10.38;9.07;;;;;;;;;;5069837;28;20207;-67
2021/08/19 00:46:35;;;;;;;13.77;11.25;;;;;;;;;;5064420;28;20180;-67
2021/08/19 00:49:01;;;;;;;12.75;11.13;;;;;;;;;;5055470;28;20646;-67
2021/08/19 00:51:34;;;;;;;13.13;10.98;;;;;;;;;;5068048;28;20177;-68
2021/08/19 00:53:59;;;;;;;11.85;10.65;;;;;;;;;;5068378;28;20192;-68
2021/08/19 00:56:25;;;;;;;12.13;10.55;;;;;;;;;;5064222;28;20179;-69
2021/08/19 00:58:51;;;;;;;13.95;11.40;;;;;;;;;;5066856;28;20177;-68
2021/08/19 01:01:17;;;;;;;14.77;11.20;;;;;;;;;;5066523;28;20177;-69
2021/08/19 01:03:42;;;;;;;17.73;12.87;;;;;;;;;;5067126;28;20207;-68
2021/08/19 01:06:07;;;;;;;15.98;12.43;;;;;;;;;;5046149;28;20499;-68
2021/08/19 01:08:33;;;;;;;14.80;13.13;;;;;;;;;;5069237;28;20208;-68
2021/08/19 01:10:58;;;;;;;19.48;13.95;;;;;;;;;;5066448;28;20176;-68
2021/08/19 01:13:23;;;;;;;16.08;14.00;;;;;;;;;;5069565;28;20203;-68
2021/08/19 01:15:48;;;;;;;16.65;14.15;;;;;;;;;;5067340;28;20216;-68
2021/08/19 01:18:13;;;;;;;15.73;14.03;;;;;;;;;;5070298;28;20181;-68
2021/08/19 01:20:39;;;;;;;16.48;14.57;;;;;;;;;;5049175;28;21025;-68
2021/08/19 01:23:04;;;;;;;18.77;15.25;;;;;;;;;;5069136;28;20184;-68
2021/08/19 01:25:29;;;;;;;20.85;15.65;;;;;;;;;;5010751;28;1050694;-68
2021/08/19 01:27:55;;;;;;;21.15;15.45;;;;;;;;;;5070250;28;20254;-68
2021/08/19 01:30:21;;;;;;;16.48;14.45;;;;;;;;;;5073762;28;20249;-68
2021/08/19 01:32:46;;;;;;;17.05;15.25;;;;;;;;;;5073357;28;20204;-68
2021/08/19 01:35:12;;;;;;;17.52;14.77;;;;;;;;;;5071410;28;20193;-68
2021/08/19 01:37:37;;;;;;;17.15;15.32;;;;;;;;;;5071759;28;20642;-68
2021/08/19 01:40:02;;;;;;;19.30;16.13;;;;;;;;;;5073465;28;20275;-68
2021/08/19 01:42:27;;;;;;;20.45;16.15;;;;;;;;;;5055049;28;20521;-68
2021/08/19 01:44:52;;;;;;;22.00;16.45;;;;;;;;;;5074846;28;20196;-68
2021/08/19 01:47:20;;;;;;;21.30;15.37;;;;;;;;;;5071160;28;20253;-68
2021/08/19 01:49:45;;;;;;;17.92;15.65;;;;;;;;;;5056947;28;20413;-68
2021/08/19 01:52:11;;;;;;;20.77;15.23;;;;;;;;;;5066841;28;20646;-68
2021/08/19 01:54:36;;;;;;;18.73;15.50;;;;;;;;;;5071020;28;20548;-68
2021/08/19 01:57:01;;;;;;;22.13;15.60;;;;;;;;;;5062346;28;20192;-68
2021/08/19 01:59:27;;;;;;;20.35;14.68;;;;;;;;;;5070514;28;20188;-68
2021/08/19 02:01:53;;;;;;;21.27;14.80;;;;;;;;;;5066653;28;20184;-70
2021/08/19 02:04:18;;;;;;;20.63;16.00;;;;;;;;;;5071250;28;20748;-68
2021/08/19 02:06:43;;;;;;;19.97;15.13;;;;;;;;;;5070029;28;20192;-68
2021/08/19 02:09:08;;;;;;;20.42;14.77;;;;;;;;;;5075928;28;20516;-67
2021/08/19 02:11:34;;;;;;;16.90;14.55;;;;;;;;;;5083571;28;20295;-69
2021/08/19 02:13:59;;;;;;;21.65;14.85;;;;;;;;;;5085504;28;20225;-68
2021/08/19 02:16:24;;;;;;;19.88;15.50;;;;;;;;;;5085472;28;20166;-67
2021/08/19 02:18:49;;;;;;;19.40;14.67;;;;;;;;;;5083808;28;20192;-68
2021/08/19 02:21:14;;;;;;;20.23;16.73;;;;;;;;;;5084491;28;20452;-68
2021/08/19 02:23:39;;;;;;;24.17;17.13;;;;;;;;;;5082716;28;20439;-68
2021/08/19 02:26:05;;;;;;;23.38;16.83;;;;;;;;;;5085656;28;20179;-68
2021/08/19 02:28:30;;;;;;;20.20;15.32;;;;;;;;;;5082672;28;20846;-67
2021/08/19 02:30:55;;;;;;;22.80;16.70;;;;;;;;;;5086480;28;20557;-68
2021/08/19 02:33:20;;;;;;;26.48;17.40;;;;;;;;;;5073833;28;20223;-68
2021/08/19 02:35:45;;;;;;;22.38;15.73;;;;;;;;;;5071611;28;20643;-68
2021/08/19 02:38:11;;;;;;;24.75;18.20;;;;;;;;;;5073905;28;20208;-68
2021/08/19 02:40:36;;;;;;;28.15;19.08;;;;;;;;;;5068567;28;20201;-67
2021/08/19 02:43:03;;;;;;;23.33;16.30;;;;;;;;;;5071737;28;20173;-68
2021/08/19 02:45:28;;;;;;;22.95;17.70;;;;;;;;;;5072595;28;20171;-68
2021/08/19 02:47:53;;;;;;;37.20;19.17;;;;;;;;;;5068823;28;20208;-68
2021/08/19 02:50:18;;;;;;;24.07;16.87;;;;;;;;;;5070829;28;20173;-68
2021/08/19 02:52:43;;;;;;;23.10;16.63;;;;;;;;;;5059517;28;20446;-67
2021/08/19 02:55:09;;;;;;;23.58;17.63;;;;;;;;;;5064126;28;20670;-68
2021/08/19 02:57:34;;;;;;;23.23;16.42;;;;;;;;;;5068990;28;20831;-68
2021/08/19 03:00:00;;;;;;;25.15;16.23;;;;;;;;;;5064774;28;20182;-68
2021/08/19 03:02:25;;;;;;;27.03;18.50;;;;;;;;;;5065903;28;20172;-68
2021/08/19 03:04:50;;;;;;;22.13;17.20;;;;;;;;;;5068850;28;20495;-68
2021/08/19 03:07:16;;;;;;;24.02;17.73;;;;;;;;;;5071427;28;20197;-68
2021/08/19 03:09:41;;;;;;;23.52;16.85;;;;;;;;;;5069035;28;20234;-69
2021/08/19 03:12:07;;;;;;;26.88;17.30;;;;;;;;;;5053066;28;20173;-68
2021/08/19 03:14:32;;;;;;;24.50;16.73;;;;;;;;;;5067338;28;20204;-68
2021/08/19 03:16:57;;;;;;;21.52;15.25;;;;;;;;;;5070472;28;20264;-68
2021/08/19 03:19:22;;;;;;;24.33;16.15;;;;;;;;;;5066992;28;20187;-67
2021/08/19 03:21:48;;;;;;;25.10;17.55;;;;;;;;;;5069476;28;20212;-67
2021/08/19 03:24:13;;;;;;;22.77;16.15;;;;;;;;;;5049070;28;20208;-67
2021/08/19 03:26:39;;;;;;;25.77;16.50;;;;;;;;;;5070272;28;20577;-67
2021/08/19 03:29:04;;;;;;;22.25;15.65;;;;;;;;;;5067987;28;20200;-67
2021/08/19 03:31:29;;;;;;;23.27;16.87;;;;;;;;;;5053119;28;20222;-66
2021/08/19 03:33:54;;;;;;;21.40;15.68;;;;;;;;;;5066391;28;20441;-67
2021/08/19 03:36:20;;;;;;;23.15;16.35;;;;;;;;;;5072191;28;20740;-66
2021/08/19 03:38:45;;;;;;;19.38;15.38;;;;;;;;;;5070409;28;20181;-67
2021/08/19 03:41:10;;;;;;;20.27;15.85;;;;;;;;;;5068880;28;20215;-67
2021/08/19 03:43:36;;;;;;;26.55;16.00;;;;;;;;;;5070433;28;20697;-67
2021/08/19 03:46:02;;;;;;;25.02;15.95;;;;;;;;;;5069394;28;20185;-67
2021/08/19 03:48:27;;;;;;;21.05;14.27;;;;;;;;;;5070698;28;20232;-67
2021/08/19 03:50:52;;;;;;;20.00;14.80;;;;;;;;;;5069235;28;20325;-67
2021/08/19 03:53:18;;;;;;;20.80;15.65;;;;;;;;;;5071614;28;20401;-67
2021/08/19 03:55:43;;;;;;;19.10;15.05;;;;;;;;;;5068818;28;20196;-67
2021/08/19 03:58:08;;;;;;;19.52;14.02;;;;;;;;;;5066768;28;20180;-68
2021/08/19 04:00:33;;;;;;;21.52;15.05;;;;;;;;;;5069259;28;20177;-67
2021/08/19 04:02:59;;;;;;;23.48;15.15;;;;;;;;;;5069349;28;20187;-67
2021/08/19 04:05:24;;;;;;;21.38;14.90;;;;;;;;;;5068299;28;20211;-67
2021/08/19 04:07:49;;;;;;;17.33;13.57;;;;;;;;;;5067905;28;20204;-67
2021/08/19 04:10:14;;;;;;;21.77;13.18;;;;;;;;;;5069941;28;20177;-67
2021/08/19 04:12:41;;;;;;;17.17;12.63;;;;;;;;;;5068178;28;20180;-67
2021/08/19 04:15:06;;;;;;;16.77;12.18;;;;;;;;;;5064615;28;20196;-68
2021/08/19 04:17:32;;;;;;;16.13;12.52;;;;;;;;;;5068113;28;20184;-67
2021/08/19 04:19:57;;;;;;;18.67;12.73;;;;;;;;;;5068089;28;20177;-67
2021/08/19 04:22:23;;;;;;;20.00;13.18;;;;;;;;;;5066521;28;20185;-67
2021/08/19 04:24:48;;;;;;;20.95;12.50;;;;;;;;;;5069109;28;20290;-67
2021/08/19 04:27:13;;;;;;;24.63;13.77;;;;;;;;;;5065783;28;20197;-67
2021/08/19 04:29:38;;;;;;;16.27;12.20;;;;;;;;;;5070240;28;20433;-67
2021/08/19 04:32:04;;;;;;;17.85;11.90;;;;;;;;;;5069368;28;20260;-67
2021/08/19 04:34:30;;;;;;;19.65;10.90;;;;;;;;;;5071265;28;20542;-67
2021/08/19 04:36:55;;;;;;;22.75;12.13;;;;;;;;;;5069050;28;20250;-67
2021/08/19 04:39:21;;;;;;;15.68;11.02;;;;;;;;;;5051959;28;20188;-67
2021/08/19 04:41:46;;;;;;;16.27;11.60;;;;;;;;;;5067487;28;20181;-67
2021/08/19 04:44:11;;;;;;;15.20;11.15;;;;;;;;;;5068827;28;20211;-67
2021/08/19 04:46:36;;;;;;;17.55;11.23;;;;;;;;;;5069427;28;20172;-67
2021/08/19 04:49:05;;;;;;;17.75;11.35;;;;;;;;;;5068728;28;20564;-67
2021/08/19 04:51:31;;;;;;;17.10;11.63;;;;;;;;;;5067480;28;20176;-66
2021/08/19 04:53:56;;;;;;;24.20;12.60;;;;;;;;;;5069635;28;20198;-67
2021/08/19 04:56:27;;;;;;;17.17;11.93;;;;;;;;;;5070638;28;20244;-67
2021/08/19 04:58:52;;;;;;;19.00;13.07;;;;;;;;;;5069371;28;20435;-67
2021/08/19 05:01:17;;;;;;;19.25;11.93;;;;;;;;;;5052009;28;20666;-67
2021/08/19 05:03:42;;;;;;;15.67;11.03;;;;;;;;;;5068013;28;20197;-67
2021/08/19 05:06:07;;;;;;;16.50;11.50;;;;;;;;;;5050467;28;20793;-67
2021/08/19 05:08:33;;;;;;;20.70;13.77;;;;;;;;;;5064462;28;20460;-67
2021/08/19 05:10:58;;;;;;;18.27;11.00;;;;;;;;;;5069735;28;20433;-67
2021/08/19 05:13:23;;;;;;;17.63;11.20;;;;;;;;;;5069865;28;20448;-67
2021/08/19 05:15:48;;;;;;;15.75;11.15;;;;;;;;;;5069211;28;20809;-67
2021/08/19 05:18:14;;;;;;;18.10;11.07;;;;;;;;;;5066786;28;20176;-67
2021/08/19 05:20:39;;;;;;;16.17;11.13;;;;;;;;;;5066873;28;20246;-67
2021/08/19 05:23:06;;;;;;;14.00;10.23;;;;;;;;;;5069435;28;20458;-67
2021/08/19 05:25:31;;;;;;;15.60;10.52;;;;;;;;;;5068291;28;20192;-67
2021/08/19 05:27:56;;;;;;;14.38;10.32;;;;;;;;;;5069696;28;20208;-67
2021/08/19 05:30:22;;;;;;;15.70;10.37;;;;;;;;;;5067670;28;20221;-67
2021/08/19 05:32:47;;;;;;;14.87;10.07;;;;;;;;;;5069592;28;20460;-67
2021/08/19 05:35:12;;;;;;;17.07;10.93;;;;;;;;;;5068145;28;20445;-67
2021/08/19 05:37:37;;;;;;;14.00;10.20;;;;;;;;;;5068764;28;20429;-67
2021/08/19 05:40:02;;;;;;;18.60;9.75;;;;;;;;;;5068213;28;20440;-67
2021/08/19 05:42:28;;;;;;;17.67;10.55;;;;;;;;;;5067049;28;20181;-67
2021/08/19 05:44:53;;;;;;;14.43;9.15;;;;;;;;;;5070800;28;20208;-67
2021/08/19 05:47:18;;;;;;;15.98;10.13;;;;;;;;;;5066561;28;20197;-66
2021/08/19 05:49:45;;;;;;;15.70;9.77;;;;;;;;;;5070613;28;20185;-67
2021/08/19 05:52:12;;;;;;;15.60;10.35;;;;;;;;;;5064793;28;20258;-67
2021/08/19 05:54:37;;;;;;;12.10;10.20;;;;;;;;;;5069586;28;20712;-67
2021/08/19 05:57:02;;;;;;;18.45;9.75;;;;;;;;;;5067095;28;20193;-67
2021/08/19 05:59:28;;;;;;;14.63;9.65;;;;;;;;;;5050082;28;20189;-67
2021/08/19 06:01:53;;;;;;;13.00;8.77;;;;;;;;;;5064989;28;20192;-66
2021/08/19 06:04:19;;;;;;;10.75;8.85;;;;;;;;;;5067238;28;21670;-67
2021/08/19 06:06:45;;;;;;;12.93;8.90;;;;;;;;;;5063079;28;20552;-67
2021/08/19 06:09:10;;;;;;;11.43;8.75;;;;;;;;;;5064895;28;20176;-67
2021/08/19 06:11:35;;;;;;;13.70;8.80;;;;;;;;;;5068688;28;20185;-67
2021/08/19 06:14:00;;;;;;;12.13;8.63;;;;;;;;;;5066825;28;20480;-67
2021/08/19 06:16:25;;;;;;;14.75;8.63;;;;;;;;;;5065547;28;20426;-67
2021/08/19 06:18:51;;;;;;;12.73;8.40;;;;;;;;;;5059685;28;20598;-67
2021/08/19 06:21:16;;;;;;;14.73;9.27;;;;;;;;;;5071425;28;20554;-67
2021/08/19 06:23:41;;;;;;;13.48;8.60;;;;;;;;;;5070577;28;20240;-67
2021/08/19 06:26:08;;;;;;;14.10;8.33;;;;;;;;;;5071160;28;20278;-67
2021/08/19 06:28:33;;;;;;;15.50;9.63;;;;;;;;;;5057758;28;20462;-67
2021/08/19 06:30:58;;;;;;;12.70;8.87;;;;;;;;;;5090453;28;20371;-69
2021/08/19 06:33:23;;;;;;;17.02;9.07;;;;;;;;;;5087928;28;20441;-68
2021/08/19 06:35:49;;;;;;;13.07;8.43;;;;;;;;;;5085612;28;20182;-68
2021/08/19 06:38:14;;;;;;;13.98;8.30;;;;;;;;;;5083694;28;20430;-68
2021/08/19 06:40:39;;;;;;;15.85;9.30;;;;;;;;;;5087888;28;20176;-69
2021/08/19 06:43:05;;;;;;;16.42;9.75;;;;;;;;;;5086526;28;20180;-66
2021/08/19 06:45:30;;;;;;;13.10;8.37;;;;;;;;;;5084585;28;20203;-66
2021/08/19 06:47:55;;;;;;;16.95;10.32;;;;;;;;;;5078850;28;20464;-66
2021/08/19 06:50:20;;;;;;;13.97;8.37;;;;;;;;;;5070010;28;20193;-67
2021/08/19 06:52:45;;;;;;;16.95;9.00;;;;;;;;;;5046955;28;20417;-67
2021/08/19 06:55:11;;;;;;;15.10;10.23;;;;;;;;;;5069524;28;20747;-68
2021/08/19 06:57:37;;;;;;;14.40;8.75;;;;;;;;;;5050969;28;20808;-68
2021/08/19 07:00:05;;;;;;;18.02;9.68;;;;;;;;;;5068294;28;20177;-68
2021/08/19 07:02:30;;;;;;;15.15;9.57;;;;;;;;;;5070821;28;20674;-68
2021/08/19 07:04:55;;;;;;;15.97;9.10;;;;;;;;;;5070290;28;20212;-68
2021/08/19 07:07:21;;;;;;;14.93;9.45;;;;;;;;;;5071664;28;20449;-68
2021/08/19 07:09:46;;;;;;;15.68;9.20;;;;;;;;;;5073016;28;20238;-68
2021/08/19 07:12:11;;;;;;;12.77;8.80;;;;;;;;;;5068491;28;20594;-68
2021/08/19 07:14:36;;;;;;;16.15;10.15;;;;;;;;;;5070012;28;20542;-68
2021/08/19 07:17:01;;;;;;;17.13;9.50;;;;;;;;;;5065248;28;20192;-68
2021/08/19 07:19:27;;;;;;;14.27;8.73;;;;;;;;;;5070430;28;20539;-68
2021/08/19 07:21:52;;;;;;;14.00;9.25;;;;;;;;;;5073112;28;20173;-69
2021/08/19 07:24:18;;;;;;;15.43;11.20;;;;;;;;;;5066478;28;20216;-69
2021/08/19 07:26:43;;;;;;;21.35;12.15;;;;;;;;;;5071805;28;20226;-68
2021/08/19 07:29:08;;;;;;;14.45;9.23;;;;;;;;;;5066220;28;20203;-68
2021/08/19 07:31:35;;;;;;;18.08;10.32;;;;;;;;;;5073052;28;20161;-68
2021/08/19 07:34:00;;;;;;;16.02;9.80;;;;;;;;;;5072834;28;20189;-68
2021/08/19 07:36:26;;;;;;;16.60;9.80;;;;;;;;;;5073005;28;20184;-68
2021/08/19 07:38:51;;;;;;;16.40;9.47;;;;;;;;;;5072463;28;20974;-69
2021/08/19 07:41:16;;;;;;;10.87;8.57;;;;;;;;;;5047217;28;20426;-68
2021/08/19 07:43:41;;;;;;;12.18;8.55;;;;;;;;;;5068805;28;20862;-68
2021/08/19 07:46:06;;;;;;;13.68;9.77;;;;;;;;;;5071222;28;20719;-68
2021/08/19 07:48:32;;;;;;;15.07;8.85;;;;;;;;;;5069177;28;20208;-70
2021/08/19 07:50:57;;;;;;;12.95;8.88;;;;;;;;;;5050786;28;20216;-68
2021/08/19 07:53:23;;;;;;;10.25;8.57;;;;;;;;;;5051476;28;20817;-68
2021/08/19 07:55:48;;;;;;;10.57;9.00;;;;;;;;;;5072419;28;20646;-69
2021/08/19 07:58:13;;;;;;;14.95;8.43;;;;;;;;;;5068837;28;20181;-68
2021/08/19 08:00:38;;;;;;;13.13;8.80;;;;;;;;;;5068113;28;20172;-68
2021/08/19 08:03:04;;;;;;;9.95;8.10;;;;;;;;;;5071897;28;20189;-70
2021/08/19 08:05:31;;;;;;;12.05;8.15;;;;;;;;;;5068787;28;20203;-69
2021/08/19 08:08:07;;;;;;;13.98;8.75;;;;;;;;;;5070311;28;20204;-68
2021/08/19 08:10:34;;;;;;;10.15;8.50;;;;;;;;;;5067320;28;20165;-69
2021/08/19 08:13:00;;;;;;;13.45;9.00;;;;;;;;;;5071212;28;20260;-68
2021/08/19 08:15:25;;;;;;;12.10;9.00;;;;;;;;;;5071541;28;20268;-68
2021/08/19 08:17:51;;;;;;;9.60;8.60;;;;;;;;;;5069799;28;20192;-68
2021/08/19 08:20:16;;;;;;;12.10;8.67;;;;;;;;;;5068120;28;20235;-68
2021/08/19 08:22:43;;;;;;;9.52;8.52;;;;;;;;;;5070388;28;20418;-68
2021/08/19 08:25:09;;;;;;;9.40;8.30;;;;;;;;;;5091241;22;20229;-69
2021/08/19 08:27:34;;;;;;;13.30;10.13;;;;;;;;;;5066946;28;20212;-69
2021/08/19 08:29:59;;;;;;;12.82;8.30;;;;;;;;;;5070815;28;20180;-70
2021/08/19 08:32:24;;;;;;;10.67;8.00;;;;;;;;;;5069855;28;20795;-70
2021/08/19 08:34:49;;;;;;;11.98;9.27;;;;;;;;;;5053464;28;20435;-69
2021/08/19 08:37:15;;;;;;;10.38;9.35;;;;;;;;;;5071542;28;20180;-68
2021/08/19 08:39:40;;;;;;;12.00;8.60;;;;;;;;;;5053205;28;20169;-68
2021/08/19 08:42:07;;;;;;;9.48;8.40;;;;;;;;;;5065714;28;20591;-69
2021/08/19 08:44:33;;;;;;;9.95;8.95;;;;;;;;;;5070499;28;20205;-68
2021/08/19 08:46:58;;;;;;;14.00;9.30;;;;;;;;;;5068213;28;20212;-68
2021/08/19 08:49:24;;;;;;;12.13;9.15;;;;;;;;;;5068785;28;20245;-69
2021/08/19 08:52:00;;;;;;;8.88;7.97;;;;;;;;;;5071017;28;20173;-68
2021/08/19 08:54:26;;;;;;;10.65;8.77;;;;;;;;;;5069827;28;20216;-68
2021/08/19 08:56:51;;;;;;;10.27;8.57;;;;;;;;;;5071185;28;20635;-69
2021/08/19 08:59:16;;;;;;;10.30;8.05;;;;;;;;;;5070517;28;20561;-68
2021/08/19 09:01:42;;;;;;;11.35;7.95;;;;;;;;;;5070180;28;20180;-69
2021/08/19 09:04:07;;;;;;;9.38;8.27;;;;;;;;;;5070837;28;20202;-69
2021/08/19 09:06:36;;;;;;;11.60;9.25;;;;;;;;;;5071100;28;20177;-69
2021/08/19 09:09:12;;;;;;;15.15;10.65;;;;;;;;;;5071628;28;20200;-69
2021/08/19 09:11:42;;;;;;;15.73;9.18;;;;;;;;;;5073142;28;20169;-68
2021/08/19 09:14:13;;;;;;;8.63;7.65;;;;;;;;;;5070843;28;20249;-68
2021/08/19 09:16:40;;;;;;;11.75;8.68;;;;;;;;;;5069677;28;20184;-68
2021/08/19 09:19:09;;;;;;;10.27;8.95;;;;;;;;;;5069399;28;20181;-69
2021/08/19 09:21:44;;;;;;;9.25;8.25;;;;;;;;;;5071021;28;20169;-68
2021/08/19 09:24:10;;;;;;;8.93;8.00;;;;;;;;;;5068395;28;20568;-68
2021/08/19 09:26:35;;;;;;;9.38;8.40;;;;;;;;;;5070640;28;20191;-68
2021/08/19 09:29:12;;;;;;;14.10;8.87;;;;;;;;;;5068373;28;20204;-68
2021/08/19 09:31:37;;;;;;;10.07;8.27;;;;;;;;;;5068194;28;20428;-68
2021/08/19 09:34:02;;;;;;;12.80;8.90;;;;;;;;;;5052562;28;20204;-68
2021/08/19 09:36:28;;;;;;;10.73;8.00;;;;;;;;;;5068218;28;20173;-68
2021/08/19 09:38:53;;;;;;;10.00;8.95;;;;;;;;;;5074543;28;20188;-69
2021/08/19 09:41:19;;;;;;;13.63;8.93;;;;;;;;;;5067146;28;20656;-67
2021/08/19 09:43:45;;;;;;;9.55;8.52;;;;;;;;;;5068000;28;20192;-68
2021/08/19 09:46:12;;;;;;;9.38;8.38;;;;;;;;;;5062724;28;20187;-69
2021/08/19 09:48:37;;;;;;;10.07;8.70;;;;;;;;;;5067287;28;20228;-68
2021/08/19 09:51:12;;;;;;;10.35;8.55;;;;;;;;;;5067604;28;20196;-68
2021/08/19 09:53:42;;;;;;;10.52;8.38;;;;;;;;;;5065582;28;20242;-68
2021/08/19 09:56:09;;;;;;;11.30;8.65;;;;;;;;;;5067723;28;20177;-70
2021/08/19 09:58:34;;;;;;;9.88;8.10;;;;;;;;;;5070778;28;20185;-69
2021/08/19 10:00:59;;;;;;;8.30;7.30;;;;;;;;;;5058162;28;20177;-67
2021/08/19 10:03:25;;;;;;;9.75;8.00;;;;;;;;;;5057791;28;20886;-69
2021/08/19 10:05:51;;;;;;;9.35;7.53;;;;;;;;;;5070808;28;20200;-69
2021/08/19 10:08:16;;;;;;;9.20;7.13;;;;;;;;;;5069958;28;20580;-69
2021/08/19 10:10:44;;;;;;;8.25;7.10;;;;;;;;;;5068523;28;20224;-71
2021/08/19 10:13:10;;;;;;;8.43;7.53;;;;;;;;;;5068200;28;20175;-70
2021/08/19 10:15:36;;;;;;;8.45;7.57;;;;;;;;;;5067482;28;20193;-69
2021/08/19 10:18:01;;;;;;;8.82;6.85;;;;;;;;;;5054517;28;20187;-69
2021/08/19 10:20:31;;;;;;;8.82;7.90;;;;;;;;;;5064693;28;20192;-69
2021/08/19 10:22:59;;;;;;;8.73;7.13;;;;;;;;;;5069398;28;20176;-69
2021/08/19 10:25:25;;;;;;;9.57;8.23;;;;;;;;;;5045948;28;20502;-70
2021/08/19 10:28:10;;;;;;;13.18;8.73;;;;;;;;;;5067687;28;20230;-69
2021/08/19 10:30:44;;;;;;;9.02;8.15;;;;;;;;;;5070578;28;20189;-69
2021/08/19 10:33:09;;;;;;;9.38;8.48;;;;;;;;;;5072228;28;20271;-68
2021/08/19 10:35:34;;;;;;;9.32;8.43;;;;;;;;;;5070971;28;20288;-72
2021/08/19 10:38:00;;;;;;;10.23;8.32;;;;;;;;;;5070512;28;20193;-68
2021/08/19 10:40:28;;;;;;;11.20;8.77;;;;;;;;;;5068772;28;20180;-69
2021/08/19 10:43:16;;;;;;;8.75;7.40;;;;;;;;;;5069537;28;20271;-70
2021/08/19 10:45:42;;;;;;;10.20;8.13;;;;;;;;;;5058010;28;20328;-69
2021/08/19 10:48:07;;;;;;;11.73;7.82;;;;;;;;;;5049286;28;20235;-69
2021/08/19 10:50:33;;;;;;;8.95;7.07;;;;;;;;;;5070462;28;20205;-69
2021/08/19 10:53:09;;;;;;;9.75;6.95;;;;;;;;;;5063601;28;20192;-69
2021/08/19 10:55:45;;;;;;;7.65;6.85;;;;;;;;;;5066815;28;20196;-68
2021/08/19 10:58:29;;;;;;;9.63;7.80;;;;;;;;;;5068601;28;20176;-68
2021/08/19 11:00:55;;;;;;;8.10;7.25;;;;;;;;;;5071822;28;20177;-69
2021/08/19 11:03:39;;;;;;;7.03;6.32;;;;;;;;;;5060691;28;20178;-68
2021/08/19 11:06:05;;;;;;;7.78;6.30;;;;;;;;;;5069590;28;20272;-68
2021/08/19 11:08:40;;;;;;;7.60;6.28;;;;;;;;;;5071209;28;20209;-68
2021/08/19 11:11:05;;;;;;;12.70;7.50;;;;;;;;;;5065924;28;20229;-68
2021/08/19 11:13:37;;;;;;;7.68;6.82;;;;;;;;;;5070066;28;20181;-69
2021/08/19 11:16:10;;;;;;;6.28;5.53;;;;;;;;;;5071819;28;20181;-68
2021/08/19 11:18:36;;;;;;;7.22;5.00;;;;;;;;;;5068037;28;20227;-68
2021/08/19 11:21:03;;;;;;;5.10;4.60;;;;;;;;;;5071954;28;20177;-68
2021/08/19 11:23:29;;;;;;;5.55;4.63;;;;;;;;;;5068396;28;20203;-68
2021/08/19 11:25:59;;;;;;;5.25;4.47;;;;;;;;;;5067251;28;20244;-69
2021/08/19 11:28:32;;;;;;;6.72;5.00;;;;;;;;;;5047769;28;20330;-68
2021/08/19 11:30:57;;;;;;;6.05;5.38;;;;;;;;;;5068882;28;20200;-68
2021/08/19 11:33:23;;;;;;;5.93;5.30;;;;;;;;;;5069650;28;20209;-68
2021/08/19 11:35:50;;;;;;;4.72;4.00;;;;;;;;;;5068576;28;20452;-69
2021/08/19 11:38:20;;;;;;;5.50;4.82;;;;;;;;;;5065360;28;20189;-68
2021/08/19 11:40:47;;;;;;;5.35;4.80;;;;;;;;;;5065522;28;20195;-68
2021/08/19 11:43:26;;;;;;;7.25;6.22;;;;;;;;;;5066862;28;20177;-69
2021/08/19 11:46:03;;;;;;;6.00;5.35;;;;;;;;;;5052425;28;20622;-69
2021/08/19 11:48:29;;;;;;;7.28;5.35;;;;;;;;;;5068311;28;20193;-70
2021/08/19 11:50:55;;;;;;;6.32;4.95;;;;;;;;;;5072013;28;20330;-69
2021/08/19 11:53:21;;;;;;;7.60;5.57;;;;;;;;;;5051930;28;20189;-68
2021/08/19 11:55:47;;;;;;;5.22;4.63;;;;;;;;;;5066791;28;20525;-68
2021/08/19 11:58:22;;;;;;;6.15;4.45;;;;;;;;;;5049224;28;20213;-69
2021/08/19 12:01:06;;;;;;;6.00;5.00;;;;;;;;;;5068277;28;20180;-68
2021/08/19 12:03:45;;;;;;;6.53;5.10;;;;;;;;;;5063634;28;20173;-69
2021/08/19 12:06:14;;;;;;;7.93;5.85;;;;;;;;;;5070171;28;20172;-69
2021/08/19 12:09:02;;;;;;;5.88;5.38;;;;;;;;;;5069443;28;20204;-69
2021/08/19 12:11:29;;;;;;;8.40;6.82;;;;;;;;;;5050628;28;20188;-72
2021/08/19 12:13:55;;;;;;;8.38;6.55;;;;;;;;;;5067629;28;20235;-68
2021/08/19 12:16:21;;;;;;;8.27;6.90;;;;;;;;;;5070938;28;20223;-69
2021/08/19 12:19:02;;;;;;;7.13;6.40;;;;;;;;;;5067752;28;20661;-68
2021/08/19 12:21:28;;;;;;;8.50;7.07;;;;;;;;;;5047676;28;20181;-69
2021/08/19 12:24:06;;;;;;;8.57;7.60;;;;;;;;;;5060935;28;20246;-69
2021/08/19 12:26:31;;;;;;;11.95;8.32;;;;;;;;;;5063028;28;20508;-68
2021/08/19 12:28:56;;;;;;;8.90;7.33;;;;;;;;;;5064563;28;20624;-70
2021/08/19 12:31:22;;;;;;;9.38;7.95;;;;;;;;;;5065919;28;20421;-69
2021/08/19 12:33:59;;;;;;;12.65;8.35;;;;;;;;;;5069313;28;20252;-69
2021/08/19 12:36:29;;;;;;;11.98;8.90;;;;;;;;;;5068056;28;20259;-70
2021/08/19 12:38:54;;;;;;;15.27;11.18;;;;;;;;;;5065856;28;20192;-71
2021/08/19 12:41:20;;;;;;;13.47;9.17;;;;;;;;;;5066481;28;20191;-70
2021/08/19 12:44:03;;;;;;;13.07;9.40;;;;;;;;;;5051184;28;20436;-70
2021/08/19 12:46:38;;;;;;;12.02;10.13;;;;;;;;;;5052616;28;20188;-70
2021/08/19 12:49:23;;;;;;;11.57;8.40;;;;;;;;;;5065894;28;20245;-71
2021/08/19 12:51:48;;;;;;;12.20;9.35;;;;;;;;;;5058060;28;20276;-72
2021/08/19 12:54:20;;;;;;;15.15;10.70;;;;;;;;;;5064957;28;20272;-72
2021/08/19 12:56:56;;;;;;;16.02;10.52;;;;;;;;;;5071971;28;20238;-72
2021/08/19 12:59:22;;;;;;;10.77;8.25;;;;;;;;;;5065448;28;20169;-73
2021/08/19 13:01:47;;;;;;;9.47;7.50;;;;;;;;;;5047752;28;20640;-72
2021/08/19 13:04:12;;;;;;;10.27;7.85;;;;;;;;;;5065811;28;20450;-73
2021/08/19 13:06:37;;;;;;;14.65;8.73;;;;;;;;;;5064626;28;20165;-70
2021/08/19 13:09:02;;;;;;;10.27;7.83;;;;;;;;;;5062900;28;20204;-70
2021/08/19 13:11:27;;;;;;;9.43;8.25;;;;;;;;;;5058502;28;20430;-70
2021/08/19 13:13:53;;;;;;;10.97;9.20;;;;;;;;;;5064502;28;20253;-72
2021/08/19 13:16:18;;;;;;;18.87;8.73;;;;;;;;;;5061929;28;20883;-72
2021/08/19 13:18:43;;;;;;;12.35;8.93;;;;;;;;;;5068109;28;20494;-71
2021/08/19 13:21:08;;;;;;;11.48;8.40;;;;;;;;;;5048893;28;20182;-70
2021/08/19 13:23:34;;;;;;;11.23;8.33;;;;;;;;;;5043671;28;20255;-71
2021/08/19 13:25:59;;;;;;;13.32;8.38;;;;;;;;;;5069274;28;20452;-71
2021/08/19 13:28:24;;;;;;;17.33;9.32;;;;;;;;;;5045979;28;20201;-73
2021/08/19 13:30:49;;;;;;;13.82;9.93;;;;;;;;;;5049387;28;20246;-71
2021/08/19 13:33:14;;;;;;;11.30;9.63;;;;;;;;;;5069154;28;20173;-70
2021/08/19 13:35:40;;;;;;;11.93;9.63;;;;;;;;;;5069383;28;20471;-70
2021/08/19 13:38:05;;;;;;;14.93;10.27;;;;;;;;;;5066453;28;20422;-70
2021/08/19 13:40:31;;;;;;;16.33;10.68;;;;;;;;;;5064079;28;20512;-71
2021/08/19 13:42:56;;;;;;;13.77;10.52;;;;;;;;;;5067553;28;20216;-70
2021/08/19 13:45:21;;;;;;;14.75;10.48;;;;;;;;;;5066000;28;20193;-70
2021/08/19 13:47:46;;;;;;;12.73;11.30;;;;;;;;;;5065515;28;20223;-69
2021/08/19 13:50:11;;;;;;;13.97;10.83;;;;;;;;;;5066558;28;20180;-69
2021/08/19 13:52:37;;;;;;;16.52;10.82;;;;;;;;;;5065771;28;20552;-70
2021/08/19 13:55:03;;;;;;;15.27;11.18;;;;;;;;;;5049349;28;20723;-69
2021/08/19 13:57:29;;;;;;;11.10;9.73;;;;;;;;;;5058800;28;20193;-69
2021/08/19 13:59:55;;;;;;;14.85;11.85;;;;;;;;;;5057982;28;20177;-70
2021/08/19 14:02:20;;;;;;;13.55;10.75;;;;;;;;;;5066606;28;20534;-69
2021/08/19 14:04:45;;;;;;;11.83;10.33;;;;;;;;;;5065620;28;20280;-69
2021/08/19 14:07:10;;;;;;;11.80;10.30;;;;;;;;;;5049910;28;20809;-69
2021/08/19 14:09:35;;;;;;;14.93;11.30;;;;;;;;;;5067777;28;20505;-71
2021/08/19 14:12:00;;;;;;;11.65;10.45;;;;;;;;;;5068800;28;20461;-69
2021/08/19 14:14:26;;;;;;;16.13;11.30;;;;;;;;;;5068870;28;20204;-69
2021/08/19 14:16:51;;;;;;;13.13;10.40;;;;;;;;;;5066046;28;20525;-69
2021/08/19 14:19:17;;;;;;;13.73;11.05;;;;;;;;;;5066347;28;20181;-70
2021/08/19 14:21:42;;;;;;;12.88;9.77;;;;;;;;;;5052661;28;20173;-69